To NAV CANADA Home Page Login to a new session Search on AWWS site Feedback and Comments Disclaimer Vers la page française équivalente Tips FAQ What's new on the site To the Forecasts and Observations / NOTAM section To "File a Flight Plan" website Publications and other links Update of the User's profile FIC Telephone Numbers My Weather Data Folder Route Weather Data Regional Weather Data Local Weather Data To the Forecasts and Observations / NOTAM section
Request Generated 03/06/2015 at 02:23:12 UTC . Weather information available at that time is displayed.

METAR/TAF

REGINA/REGINA INTL/SK    

METAR CYQR 060200Z 29011KT 15SM FEW250 M07/M09 A2998 RMK CI1 SLP203=
METAR CYQR 060100Z 31008KT 15SM FEW250 M06/M09 A2996 RMK CI2 SLP197=
METAR CYQR 060000Z 29011KT 15SM FEW180 SCT250 M03/M07 A2996 RMK
AC1CI3 AC TR SLP194=

TAF CYQR 052338Z 0600/0624 29012KT P6SM FEW100 SCT250
BECMG 0603/0605 30010KT
BECMG 0607/0609 VRB03KT
FM061100 18005KT P6SM BKN100
FM061300 18005KT P6SM BKN060 PROB30 0613/0616 5SM -FZRA BR
FM061700 30020G30KT P6SM BKN020 TEMPO 0617/0624 5SM -SN BR
RMK NXT FCST BY 060600Z=
Your time UTC time
Weather data provided by Environment Canada and NAV CANADA